Detalii statie Lilieci, IL [00001199]

Toti senzorii

Date Temperatura solului [C]Precipitatii [mm]Voltaj baterie [mV]Leaf Wetness [Min]HC Air temperature [C]HC Relative humidity [%]Punctul de roua [C]
medieminmaxsumaultimatimpmedieminmaxmediemediemin
2017-12-10 22:00:00 1.9 1.7 2.1 0 6512 0 0.31 -0.36 0.99 96.34 -0.2 -0.5
2017-12-11 00:00:00 1.5 1.4 1.8 0 6512 0 -1.02 -1.27 -0.66 100 -0.8 -1.1
2017-12-11 02:00:00 1.2 1 1.4 0 6502 0 -1.55 -1.74 -1.28 100 -1.4 -1.6
2017-12-11 04:00:00 1 0.9 1.2 0 6484 0 -1.49 -2.13 -1.09 100 -1.3 -2
2017-12-11 06:00:00 0.8 0.7 1 0 6494 0 -2.68 -3.31 -1.91 100 -2.5 -3.2
2017-12-11 08:00:00 0.7 0.5 0.8 0 6502 0 -3.42 -3.78 -2.8 100 -3.2 -3.6
2017-12-11 10:00:00 0.5 0.5 0.7 0 6904 0 -1.22 -3.01 1.29 99.89 -1.1 -2.9
2017-12-11 12:00:00 0.5 0.4 0.6 0 6894 0 3.4 1.65 5.08 82.93 0.6 -0.3
2017-12-11 14:00:00 0.7 0.5 1.3 0 6884 0 4.61 4.28 5.25 79.31 1.2 -0.5
2017-12-11 16:00:00 1.6 1.2 1.9 0 6884 0 4.02 3.11 4.55 92.04 2.7 2.1
2017-12-11 18:00:00 1.8 1.8 2 0 6590 0 2.2 1.12 3.57 98.03 1.8 1.1
2017-12-11 20:00:00 1.5 1.3 1.8 0 6532 0 0.73 0.03 1.21 100 0.6 0
2017-12-11 22:00:00 1.3 1.2 1.5 0 6512 0 0.28 -0.31 1.04 100 0.2 -0.2
2017-12-12 00:00:00 1.1 1.1 1.3 0 6512 0 -0.03 -0.56 0.62 100 0 -0.4
2017-12-12 02:00:00 1 0.8 1.1 0 6484 0 -0.5 -0.87 0 100 -0.3 -0.7
2017-12-12 04:00:00 0.9 0.7 1 0 6494 0 -0.36 -0.71 0.17 100 -0.2 -0.6
2017-12-12 06:00:00 0.8 0.7 0.9 0 6484 0 0.56 -0.3 1.43 95.49 -0.1 -0.5
2017-12-12 08:00:00 0.7 0.6 0.8 0 6522 0 -0.44 -1.26 0.74 98.79 -0.5 -1.1
2017-12-12 10:00:00 0.6 0.5 0.8 0 6894 0 2.9 -0.23 6.43 88.95 1.1 -0.2
2017-12-12 12:00:00 0.8 0.6 1.4 0 6884 0 8.41 6.73 10.88 69.12 2.8 1.8
2017-12-12 14:00:00 2.4 1.3 3.5 0 6884 0 11.91 10.84 12.92 58.09 3.7 2.5
2017-12-12 16:00:00 4.2 3.5 4.7 0 6786 0 11.07 9.04 12.72 66.81 4.9 3.9
2017-12-12 18:00:00 4.5 4.1 4.8 0 6582 0 6.58 5.04 8.79 92.47 5.3 5